NCAR-RAP Real-Time Weather Data

Output produced by METARs form (26 March 2017  18:45 UTC)
found at http://weather.rap.ucar.edu/surface/
 
KIAD 261752Z 09009KT 9SM OVC009 09/06 A3030 RMK AO2 SLP262 T00890061 10089 20083 58011
KIAD 261652Z 14007KT 10SM OVC009 09/06 A3032 RMK AO2 SLP267 T00890061
KIAD 261608Z 11008KT 10SM OVC009 08/06 A3033 RMK AO2 T00830061
KIAD 261552Z 09007KT 10SM OVC010 09/06 A3034 RMK AO2 SLP272 T00890061
KIAD 261452Z 11006KT 10SM OVC011 09/06 A3034 RMK AO2 SLP272 T00890056 51013
KIAD 261352Z 10006KT 10SM OVC011 08/06 A3033 RMK AO2 SLP269 T00830056
KIAD 261252Z 10007KT 10SM OVC011 08/06 A3032 RMK AO2 SLP265 T00830056
KIAD 261152Z 07006KT 10SM OVC015 09/05 A3030 RMK AO2 SLP259 T00890050 10139 20083 51016 $
KIAD 261052Z 07010KT 10SM OVC015 09/05 A3028 RMK AO2 SLP254 T00890050 $
KIAD 260952Z 07005KT 10SM OVC016 09/05 A3027 RMK AO2 SLP250 T00890050 $
KIAD 260927Z 08011KT 10SM BKN016 09/05 A3027 RMK AO2 T00890050 $
KIAD 260852Z 07013KT 10SM FEW080 SCT240 09/05 A3025 RMK AO2 SLP243 T00940050 51019 $
KIAD 260752Z 06009KT 10SM OVC080 11/06 A3024 RMK AO2 SLP237 T01060061 $
KIAD 260652Z 07010KT 10SM BKN080 BKN240 12/07 A3023 RMK AO2 SLP234 T01170072 $
KIAD 260552Z 08012KT 10SM FEW070 OVC085 14/08 A3020 RMK AO2 SLP223 T01390078 10211 20139 53008 $
KIAD 260452Z 08015G19KT 10SM BKN060 OVC080 17/09 A3019 RMK AO2 SLP220 T01720094 402560128 $
KIAD 260352Z 08009KT 10SM SCT060 OVC080 19/11 A3018 RMK AO2 SLP216 T01890106 $
KIAD 260252Z 15004KT 10SM FEW060 BKN080 19/10 A3017 RMK AO2 SLP215 T01940100 51005 $
KIAD 260152Z 13006KT 10SM BKN070 OVC150 21/10 A3017 RMK AO2 SLP214 T02060100 $
KIAD 260052Z 09005KT 10SM OVC075 20/11 A3017 RMK AO2 SLP214 T02000106 $
KIAD 252352Z 08003KT 10SM BKN060 OVC100 21/11 A3016 RMK AO2 SLP211 T02110106 10256 20206 53008 $
KIAD 252252Z 08003KT 10SM BKN060 OVC090 22/12 A3015 RMK AO2 SLP207 T02170117
KIAD 252152Z 05005KT 10SM BKN060 OVC110 23/11 A3014 RMK AO2 SLP203 T02280111
KIAD 252052Z 00000KT 10SM BKN055 OVC120 25/09 A3013 RMK AO2 SLP202 T02500094 56008
KIAD 251952Z 01004KT 10SM BKN055 OVC120 25/10 A3014 RMK AO2 SLP203 T02500100
KIAD 251852Z 06003KT 10SM SCT047 BKN120 OVC200 25/10 A3014 RMK AO2 SLP204 T02500100
KIAD 251752Z 01004KT 10SM FEW050 BKN220 OVC250 25/10 A3016 RMK AO2 SLP210 T02500100 10250 20133 58010
KIAD 251652Z 14004KT 10SM FEW130 BKN220 OVC250 24/10 A3017 RMK AO2 SLP215 T02390100
KIAD 251552Z 19004KT 10SM BKN200 OVC250 22/10 A3018 RMK AO2 SLP218 T02170100
KIAD 251452Z 18007KT 10SM BKN200 OVC250 20/09 A3019 RMK AO2 SLP221 T02000094 50000
KIAD 251352Z 19007KT 10SM OVC250 18/09 A3019 RMK AO2 SLP223 T01780089
KIAD 251252Z 18007KT 10SM OVC250 15/08 A3020 RMK AO2 SLP224 T01500083
KIAD 251152Z 18006KT 10SM SCT120 SCT210 BKN250 13/08 A3019 RMK AO2 SLP222 70014 T01330078 10150 20128 53015
KIAD 251052Z 18005KT 10SM SCT120 BKN210 BKN250 13/08 A3017 RMK AO2 SLP216 T01330078
KIAD 250952Z 18005KT 10SM BKN240 13/08 A3015 RMK AO2 SLP210 T01280078
KIAD 250852Z 18004KT 10SM FEW150 BKN220 13/07 A3014 RMK AO2 SLP206 T01330072 55006
KIAD 250752Z 19006KT 10SM BKN150 BKN200 14/07 A3014 RMK AO2 SLP205 T01390072
KIAD 250652Z 19010KT 10SM SCT150 SCT250 15/07 A3015 RMK AO2 SLP208 T01500072
KIAD 250552Z 20011KT 10SM SCT150 BKN250 15/07 A3016 RMK AO2 SLP212 T01500072 10167 20144 58006
KIAD 250452Z 19006KT 10SM BKN150 15/07 A3018 RMK AO2 SLP220 T01500072 401670006
KIAD 250352Z 20009KT 10SM FEW160 16/07 A3018 RMK AO2 SLP221 T01560072
KIAD 250252Z 20008KT 10SM FEW250 16/07 A3018 RMK AO2 SLP220 T01560072 53009
KIAD 250152Z 21009KT 10SM FEW250 16/07 A3017 RMK AO2 SLP216 T01610072
KIAD 250052Z 20011KT 10SM FEW250 16/06 A3016 RMK AO2 SLP212 T01560061
KIAD 242152Z 18011G19KT 10SM FEW100 BKN150 BKN250 16/03 A3018 RMK AO2 SLP220 T01610028
KIAD 242052Z 19010KT 10SM FEW100 BKN150 OVC250 16/02 A3021 RMK AO2 SLP231 T01560022 56029
KIAD 241952Z 21014KT 10SM FEW080 BKN140 BKN250 15/02 A3023 RMK AO2 SLP238 T01500022
KIAD 241852Z 20015G20KT 10SM FEW080 BKN140 BKN250 12/02 A3026 RMK AO2 SLP248 T01220017
KIAD 241552Z 21011KT 10SM BKN070 BKN090 BKN220 06/03 A3038 RMK AO2 RAE28 SLP290 P0002 T00560028
KIAD 241452Z 20010KT 6SM -RA BR FEW012 OVC080 03/01 A3041 RMK AO2 SLP301 P0009 60012 T00330011 58009
KIAD 241352Z 20008KT 8SM -RA BKN090 OVC140 03/M01 A3044 RMK AO2 RAB07 SLP310 P0003 T00281006
KIAD 241252Z 20008KT 10SM BKN095 OVC170 03/M03 A3046 RMK AO2 SLP316 T00331033
KIAD 241152Z 17007KT 10SM BKN055 BKN100 BKN170 02/M04 A3044 RMK AO2 SLP310 T00221039 10022 20006 55003
KIAD 241052Z 18010KT 10SM BKN230 02/M05 A3042 RMK AO2 SLP302 T00171050
KIAD 240952Z 17010KT 10SM BKN220 01/M06 A3043 RMK AO2 SLP307 T00111056
KIAD 240852Z 17007KT 10SM SCT250 01/M07 A3045 RMK AO2 SLP312 T00111067 58018
KIAD 240752Z 17006KT 10SM SCT250 01/M07 A3047 RMK AO2 SLP320 T00111072
KIAD 240652Z 17006KT 10SM FEW250 01/M08 A3049 RMK AO2 SLP327 T00111078